createdAt,value
2024-04-15T00:01:07.405Z,100954.66
2024-04-15T00:03:34.469Z,100950.47
2024-04-15T00:06:01.009Z,100939.63
2024-04-15T00:08:27.521Z,100940.75
2024-04-15T00:10:54.513Z,100939.91
2024-04-15T00:13:21.142Z,100932.75
2024-04-15T00:15:55.750Z,100938.19
2024-04-15T00:18:22.487Z,100934.13
2024-04-15T00:20:49.265Z,100913.56
2024-04-15T00:23:15.795Z,100920.97
2024-04-15T00:25:42.283Z,100922.09
2024-04-15T00:28:08.889Z,100917.75
2024-04-15T00:30:35.805Z,100918.53
2024-04-15T00:33:02.482Z,100913.88
2024-04-15T00:35:29.597Z,100913.28
2024-04-15T00:37:56.220Z,100915.84
2024-04-15T00:40:22.922Z,100919.28
2024-04-15T00:42:49.911Z,100923.72
2024-04-15T00:45:29.677Z,100925.69
2024-04-15T00:48:00.706Z,100931.25
2024-04-15T00:50:28.655Z,100922.25
2024-04-15T00:52:55.604Z,100927.69
2024-04-15T00:55:24.027Z,100918.69
2024-04-15T00:57:53.029Z,100915.84
2024-04-15T01:00:20.070Z,100913.13
2024-04-15T01:02:47.480Z,100900.72
2024-04-15T01:09:01.052Z,100899.59
2024-04-15T01:11:27.911Z,100900.84
2024-04-15T01:13:54.481Z,100886.53
2024-04-15T01:16:21.057Z,100889.25
2024-04-15T01:18:47.619Z,100888.28
2024-04-15T01:21:14.164Z,100880.16
2024-04-15T01:23:47.405Z,100884.22
2024-04-15T01:26:13.885Z,100883.22
2024-04-15T01:28:40.405Z,100881.41
2024-04-15T01:31:06.923Z,100882.00
2024-04-15T01:33:33.429Z,100872.16
2024-04-15T01:36:00.432Z,100884.84
2024-04-15T01:38:26.967Z,100870.09
2024-04-15T01:40:53.918Z,100866.63
2024-04-15T01:43:20.544Z,100858.88
2024-04-15T01:45:47.215Z,100858.03
2024-04-15T01:48:13.821Z,100861.47
2024-04-15T01:50:40.392Z,100861.72
2024-04-15T01:53:12.254Z,100852.97
2024-04-15T01:55:39.625Z,100853.97
2024-04-15T01:58:06.153Z,100854.81
2024-04-15T02:00:32.660Z,100843.38
2024-04-15T02:02:59.269Z,100847.09
2024-04-15T02:05:25.846Z,100839.09
2024-04-15T02:07:56.922Z,100831.69
2024-04-15T02:10:23.914Z,100819.16
2024-04-15T02:12:50.931Z,100809.19
2024-04-15T02:15:17.664Z,100810.03
2024-04-15T02:17:44.240Z,100810.63
2024-04-15T02:20:10.891Z,100807.31
2024-04-15T02:22:37.407Z,100800.41
2024-04-15T02:25:05.348Z,100805.97
2024-04-15T02:27:36.502Z,100811.25
2024-04-15T02:30:04.309Z,100814.22
2024-04-15T02:32:30.846Z,100817.78
2024-04-15T02:34:57.416Z,100804.00
2024-04-15T02:37:24.065Z,100803.13
2024-04-15T02:39:50.565Z,100803.13
2024-04-15T02:42:17.148Z,100801.19
2024-04-15T02:44:43.739Z,100795.75
2024-04-15T02:47:10.273Z,100797.72
2024-04-15T02:49:38.234Z,100801.19
2024-04-15T02:52:04.977Z,100805.84
2024-04-15T02:54:31.614Z,100798.69
2024-04-15T02:56:58.166Z,100791.56
2024-04-15T02:59:24.693Z,100780.28
2024-04-15T03:01:51.310Z,100776.81
2024-04-15T03:04:17.891Z,100769.44
2024-04-15T03:06:44.479Z,100780.50
2024-04-15T03:09:12.386Z,100771.41
2024-04-15T03:11:38.928Z,100775.22
2024-04-15T03:14:05.422Z,100778.78
2024-04-15T03:16:32.391Z,100778.06
2024-04-15T03:18:59.080Z,100778.19
2024-04-15T03:21:25.603Z,100763.94
2024-04-15T03:23:52.185Z,100747.56
2024-04-15T03:26:18.746Z,100741.66
2024-04-15T03:28:45.285Z,100740.94
2024-04-15T03:31:11.844Z,100741.91
2024-04-15T03:33:41.624Z,100751.88
2024-04-15T03:36:08.699Z,100735.03
2024-04-15T03:38:35.508Z,100730.72
2024-04-15T03:41:02.065Z,100736.28
2024-04-15T03:43:28.594Z,100724.81
2024-04-15T03:45:55.119Z,100713.63
2024-04-15T03:48:21.741Z,100706.22
2024-04-15T03:50:48.228Z,100697.13
2024-04-15T03:53:14.741Z,100694.09
2024-04-15T03:55:42.412Z,100676.47
2024-04-15T03:58:09.357Z,100670.81
2024-04-15T04:00:35.866Z,100666.94
2024-04-15T04:03:02.648Z,100668.56
2024-04-15T04:05:29.218Z,100671.41
2024-04-15T04:07:55.748Z,100659.88
2024-04-15T04:10:22.914Z,100658.16
2024-04-15T04:12:49.510Z,100656.91
2024-04-15T04:15:16.011Z,100654.69
2024-04-15T04:17:46.178Z,100643.41
2024-04-15T04:20:12.901Z,100647.56
2024-04-15T04:22:39.464Z,100644.16
2024-04-15T04:25:06.220Z,100648.56
2024-04-15T04:27:32.708Z,100642.78
2024-04-15T04:29:59.223Z,100643.19
2024-04-15T04:32:25.841Z,100640.94
2024-04-15T04:34:52.366Z,100643.41
2024-04-15T04:37:18.902Z,100665.28
2024-04-15T04:39:45.479Z,100682.72
2024-04-15T04:42:12.520Z,100694.03
2024-04-15T04:44:39.042Z,100698.34
2024-04-15T04:47:05.573Z,100702.63
2024-04-15T04:49:32.750Z,100706.06
2024-04-15T04:51:59.298Z,100701.03
2024-04-15T04:54:26.111Z,100700.19
2024-04-15T04:56:53.641Z,100692.81
2024-04-15T04:59:20.723Z,100698.22
2024-04-15T05:01:47.392Z,100704.34
2024-04-15T05:04:14.045Z,100695.13
2024-04-15T05:06:40.619Z,100703.75
2024-04-15T05:09:10.384Z,100703.50
2024-04-15T05:11:38.341Z,100700.66
2024-04-15T05:14:04.982Z,100705.56
2024-04-15T05:16:31.600Z,100708.78
2024-04-15T05:18:58.141Z,100712.09
2024-04-15T05:21:24.817Z,100704.34
2024-04-15T05:23:51.361Z,100702.09
2024-04-15T05:26:17.916Z,100697.66
2024-04-15T05:28:44.454Z,100700.84
2024-04-15T05:31:11.041Z,100692.47
2024-04-15T05:33:37.617Z,100691.72
2024-04-15T05:36:04.656Z,100691.94
2024-04-15T05:38:31.190Z,100685.03
2024-04-15T05:40:57.694Z,100683.78
2024-04-15T05:43:24.633Z,100676.38
2024-04-15T05:45:51.198Z,100669.13
2024-04-15T05:48:18.551Z,100675.41
2024-04-15T05:50:46.248Z,100669.97
2024-04-15T05:53:12.738Z,100664.56
2024-04-15T05:55:44.056Z,100666.00
2024-04-15T05:58:10.604Z,100664.84
2024-04-15T06:00:37.157Z,100664.84
2024-04-15T06:03:04.243Z,100655.44
2024-04-15T06:05:31.261Z,100649.59
2024-04-15T06:07:57.916Z,100651.38
2024-04-15T06:10:24.544Z,100652.63
2024-04-15T06:12:52.281Z,100637.84
2024-04-15T06:15:18.838Z,100638.78
2024-04-15T06:17:45.545Z,100641.13
2024-04-15T06:20:12.084Z,100638.63
2024-04-15T06:22:38.596Z,100639.91
2024-04-15T06:25:06.151Z,100634.19
2024-04-15T06:27:33.122Z,100632.13
2024-04-15T06:30:00.296Z,100631.81
2024-04-15T06:32:27.128Z,100625.44
2024-04-15T06:34:54.124Z,100626.28
2024-04-15T06:37:21.249Z,100626.72
2024-04-15T06:39:47.990Z,100626.78
2024-04-15T06:42:14.528Z,100615.72
2024-04-15T06:44:41.359Z,100623.88
2024-04-15T06:47:08.144Z,100624.06
2024-04-15T06:49:34.895Z,100620.66
2024-04-15T06:52:01.631Z,100617.28
2024-04-15T06:54:28.378Z,100613.19
2024-04-15T06:56:54.962Z,100599.06
2024-04-15T06:59:24.981Z,100600.94
2024-04-15T07:01:51.803Z,100596.75
2024-04-15T07:04:18.768Z,100583.13
2024-04-15T07:06:51.377Z,100581.03
2024-04-15T07:09:17.954Z,100578.91
2024-04-15T07:11:44.525Z,100568.56
2024-04-15T07:14:11.426Z,100570.41
2024-04-15T07:16:38.074Z,100566.72
2024-04-15T07:19:04.644Z,100572.50
2024-04-15T07:21:31.162Z,100566.81
2024-04-15T07:23:57.673Z,100560.09
2024-04-15T07:26:24.262Z,100555.16
2024-04-15T07:28:53.482Z,100559.97
2024-04-15T07:31:20.175Z,100554.94
2024-04-15T07:33:47.283Z,100541.81
2024-04-15T07:36:13.867Z,100546.66
2024-04-15T07:38:40.475Z,100537.28
2024-04-15T07:41:07.232Z,100536.41
2024-04-15T07:43:33.796Z,100533.16
2024-04-15T07:46:00.354Z,100528.72
2024-04-15T07:48:26.934Z,100518.16
2024-04-15T07:50:53.528Z,100517.69
2024-04-15T07:53:20.039Z,100516.13
2024-04-15T07:55:47.066Z,100515.28
2024-04-15T07:58:13.632Z,100511.53
2024-04-15T08:00:41.058Z,100514.19
2024-04-15T08:03:07.712Z,100513.22
2024-04-15T08:05:37.357Z,100504.31
2024-04-15T08:08:05.492Z,100506.81
2024-04-15T08:10:33.342Z,100508.81
2024-04-15T08:13:00.443Z,100506.94
2024-04-15T08:15:27.250Z,100499.19
2024-04-15T08:17:53.882Z,100507.16
2024-04-15T08:20:20.791Z,100504.13
2024-04-15T08:22:49.008Z,100500.22
2024-04-15T08:25:19.555Z,100498.28
2024-04-15T08:27:46.125Z,100497.97
2024-04-15T08:30:15.715Z,100493.47
2024-04-15T08:32:42.521Z,100490.00
2024-04-15T08:35:09.606Z,100486.41
2024-04-15T08:37:36.859Z,100478.44
2024-04-15T08:40:06.320Z,100469.72
2024-04-15T08:42:48.937Z,100472.06
2024-04-15T08:45:20.543Z,100472.69
2024-04-15T08:47:50.056Z,100473.88
2024-04-15T08:50:16.968Z,100471.97
2024-04-15T08:52:43.878Z,100464.56
2024-04-15T08:55:12.046Z,100455.81
2024-04-15T08:57:39.420Z,100459.19
2024-04-15T09:00:10.633Z,100446.69
2024-04-15T09:02:37.809Z,100439.09
2024-04-15T09:05:04.792Z,100445.25
2024-04-15T09:07:31.429Z,100435.00
2024-04-15T09:09:58.278Z,100435.97
2024-04-15T09:12:25.099Z,100429.63
2024-04-15T09:14:52.449Z,100422.38
2024-04-15T09:17:19.218Z,100413.34
2024-04-15T09:19:52.752Z,100412.72
2024-04-15T09:22:19.370Z,100412.41
2024-04-15T09:24:46.050Z,100413.44
2024-04-15T09:27:13.026Z,100398.31
2024-04-15T09:29:39.621Z,100383.38
2024-04-15T09:32:07.694Z,100385.25
2024-04-15T09:34:38.153Z,100375.69
2024-04-15T09:37:05.649Z,100378.69
2024-04-15T09:39:33.669Z,100371.44
2024-04-15T09:42:01.809Z,100354.09
2024-04-15T09:44:30.762Z,100354.03
2024-04-15T09:46:58.445Z,100346.34
2024-04-15T09:49:26.249Z,100345.66
2024-04-15T09:51:53.179Z,100337.50
2024-04-15T09:54:31.695Z,100323.00
2024-04-15T09:57:11.024Z,100327.31
2024-04-15T09:59:40.261Z,100322.03
2024-04-15T10:02:23.110Z,100322.31
2024-04-15T10:04:58.525Z,100324.16
2024-04-15T10:07:28.963Z,100320.16
2024-04-15T10:09:56.013Z,100316.16
2024-04-15T10:12:24.142Z,100311.22
2024-04-15T10:14:51.832Z,100306.13
2024-04-15T10:17:26.789Z,100301.41
2024-04-15T10:19:53.501Z,100280.94
2024-04-15T10:22:24.066Z,100281.22
2024-04-15T10:24:50.894Z,100273.63
2024-04-15T10:27:18.764Z,100269.34
2024-04-15T10:29:45.449Z,100272.50
2024-04-15T10:32:16.653Z,100278.03
2024-04-15T10:34:44.008Z,100273.38
2024-04-15T10:37:14.096Z,100269.47
2024-04-15T10:39:48.133Z,100275.53
2024-04-15T10:42:14.823Z,100267.13
2024-04-15T10:44:44.947Z,100261.34
2024-04-15T10:47:11.648Z,100256.06
2024-04-15T10:49:38.763Z,100250.53
2024-04-15T10:52:05.544Z,100264.88
2024-04-15T10:54:35.761Z,100254.53
2024-04-15T10:57:02.831Z,100245.88
2024-04-15T10:59:30.411Z,100242.88
2024-04-15T11:01:57.218Z,100232.47
2024-04-15T11:04:23.933Z,100229.38
2024-04-15T11:06:50.843Z,100235.31
2024-04-15T11:09:17.446Z,100226.31
2024-04-15T11:11:44.257Z,100235.19
2024-04-15T11:14:13.453Z,100231.94
2024-04-15T11:16:47.454Z,100221.50
2024-04-15T11:19:14.639Z,100218.09
2024-04-15T11:21:42.102Z,100222.81
2024-04-15T11:24:09.159Z,100224.00
2024-04-15T11:26:37.997Z,100236.03
2024-04-15T11:29:07.709Z,100225.06
2024-04-15T11:31:35.926Z,100226.81
2024-04-15T11:34:03.889Z,100222.09
2024-04-15T11:36:30.850Z,100217.34
2024-04-15T11:38:57.698Z,100213.88
2024-04-15T11:41:24.865Z,100206.94
2024-04-15T11:43:51.474Z,100217.91
2024-04-15T11:46:21.525Z,100205.13
2024-04-15T11:48:49.891Z,100194.06
2024-04-15T11:51:18.384Z,100179.00
2024-04-15T11:53:48.954Z,100179.34
2024-04-15T11:56:17.077Z,100172.47
2024-04-15T11:58:45.772Z,100151.31
2024-04-15T12:01:12.936Z,100142.41
2024-04-15T12:03:40.356Z,100132.13
2024-04-15T12:06:07.338Z,100129.72
2024-04-15T12:08:42.792Z,100122.59
2024-04-15T12:11:16.066Z,100101.91
2024-04-15T12:13:42.802Z,100095.00
2024-04-15T12:16:10.145Z,100083.94
2024-04-15T12:18:36.824Z,100089.44
2024-04-15T12:21:03.764Z,100075.19
2024-04-15T12:23:33.563Z,100057.16
2024-04-15T12:26:01.784Z,100057.81
2024-04-15T12:28:36.112Z,100049.63
2024-04-15T12:31:02.863Z,100042.97
2024-04-15T12:33:31.342Z,100046.41
2024-04-15T12:35:59.457Z,100037.50
2024-04-15T12:38:27.495Z,100032.56
2024-04-15T12:40:54.037Z,100034.97
2024-04-15T12:43:20.750Z,100039.06
2024-04-15T12:45:47.932Z,100030.22
2024-04-15T12:48:19.210Z,100014.53
2024-04-15T12:50:48.420Z,100013.72
2024-04-15T12:53:15.733Z,99995.81
2024-04-15T12:55:45.982Z,99982.56
2024-04-15T12:58:13.680Z,99972.38
2024-04-15T13:00:41.698Z,99968.22
2024-04-15T13:03:09.216Z,99952.13
2024-04-15T13:05:41.817Z,99955.28
2024-04-15T13:08:10.260Z,99940.59
2024-04-15T13:10:37.792Z,99942.84
2024-04-15T13:13:04.992Z,99935.09
2024-04-15T13:15:31.580Z,99922.19
2024-04-15T13:18:00.502Z,99921.56
2024-04-15T13:20:27.329Z,99907.25
2024-04-15T13:22:57.146Z,99909.19
2024-04-15T13:25:23.997Z,99892.84
2024-04-15T13:27:53.759Z,99888.28
2024-04-15T13:30:20.456Z,99878.97
2024-04-15T13:32:47.378Z,99870.00
2024-04-15T13:35:14.224Z,99864.22
2024-04-15T13:37:41.869Z,99875.78
2024-04-15T13:40:08.941Z,99864.38
2024-04-15T13:42:35.897Z,99859.91
2024-04-15T13:45:02.473Z,99856.84
2024-04-15T13:47:29.094Z,99843.50
2024-04-15T13:49:57.455Z,99828.72
2024-04-15T13:52:24.090Z,99833.94
2024-04-15T13:54:53.467Z,99820.78
2024-04-15T13:57:20.464Z,99823.22
2024-04-15T13:59:47.106Z,99820.78
2024-04-15T14:02:14.042Z,99805.41
2024-04-15T14:04:40.762Z,99791.50
2024-04-15T14:07:07.621Z,99782.84
2024-04-15T14:09:34.579Z,99779.69
2024-04-15T14:12:02.096Z,99784.97
2024-04-15T14:14:29.124Z,99774.09
2024-04-15T14:16:56.630Z,99774.94
2024-04-15T14:19:25.322Z,99764.59
2024-04-15T14:21:52.398Z,99764.13
2024-04-15T14:24:18.955Z,99762.09
2024-04-15T14:26:46.571Z,99757.78
2024-04-15T14:29:13.158Z,99744.28
2024-04-15T14:31:42.477Z,99737.16
2024-04-15T14:34:09.079Z,99737.44
2024-04-15T14:36:36.425Z,99722.50
2024-04-15T14:39:06.819Z,99718.00
2024-04-15T14:41:33.390Z,99720.94
2024-04-15T14:44:02.129Z,99705.75
2024-04-15T14:46:31.246Z,99704.31
2024-04-15T14:48:58.229Z,99690.38
2024-04-15T14:51:24.928Z,99684.56
2024-04-15T14:54:00.574Z,99672.22
2024-04-15T14:56:27.926Z,99675.47
2024-04-15T14:58:57.229Z,99671.47
2024-04-15T15:01:24.180Z,99663.00
2024-04-15T15:03:50.979Z,99661.19
2024-04-15T15:06:17.658Z,99651.63
2024-04-15T15:08:46.001Z,99649.00
2024-04-15T15:11:12.958Z,99648.22
2024-04-15T15:13:40.071Z,99621.94
2024-04-15T15:16:07.283Z,99616.84
2024-04-15T15:18:34.203Z,99616.38
2024-04-15T15:21:08.061Z,99610.50
2024-04-15T15:23:42.461Z,99619.34
2024-04-15T15:26:09.126Z,99601.56
2024-04-15T15:28:35.959Z,99597.47
2024-04-15T15:31:02.822Z,99590.91
2024-04-15T15:33:38.350Z,99577.22
2024-04-15T15:36:05.360Z,99577.22
2024-04-15T15:38:39.600Z,99554.78
2024-04-15T15:41:07.881Z,99552.16
2024-04-15T15:43:34.550Z,99539.38
2024-04-15T15:46:01.468Z,99533.09
2024-04-15T15:48:28.461Z,99531.09
2024-04-15T15:50:56.501Z,99527.22
2024-04-15T15:53:24.582Z,99522.25
2024-04-15T15:55:51.417Z,99516.03
2024-04-15T15:58:18.289Z,99510.16
2024-04-15T16:00:45.353Z,99497.72
2024-04-15T16:03:12.481Z,99491.75
2024-04-15T16:05:39.141Z,99493.13
2024-04-15T16:08:06.059Z,99486.91
2024-04-15T16:10:33.651Z,99476.59
2024-04-15T16:13:00.661Z,99473.56
2024-04-15T16:15:27.431Z,99466.69
2024-04-15T16:17:54.149Z,99469.78
2024-04-15T16:20:20.829Z,99456.44
2024-04-15T16:22:47.411Z,99453.03
2024-04-15T16:25:14.285Z,99443.25
2024-04-15T16:27:41.104Z,99441.13
2024-04-15T16:30:08.773Z,99432.81
2024-04-15T16:32:39.103Z,99422.00
2024-04-15T16:35:06.461Z,99417.47
2024-04-15T16:37:33.290Z,99421.22
2024-04-15T16:40:00.212Z,99414.94
2024-04-15T16:42:26.874Z,99403.56
2024-04-15T16:44:53.597Z,99405.63
2024-04-15T16:47:21.157Z,99419.91
2024-04-15T16:49:50.610Z,99411.94
2024-04-15T16:52:17.276Z,99394.03
2024-04-15T16:54:49.423Z,99389.38
2024-04-15T16:57:17.407Z,99373.25
2024-04-15T16:59:50.481Z,99356.91
2024-04-15T17:02:30.266Z,99349.66
2024-04-15T17:05:00.340Z,99322.25
2024-04-15T17:07:27.693Z,99320.22
2024-04-15T17:09:57.664Z,99323.53
2024-04-15T17:12:24.994Z,99370.47
2024-04-15T17:14:51.527Z,99363.09
2024-04-15T17:17:22.033Z,99356.16
2024-04-15T17:19:49.421Z,99331.31
2024-04-15T17:22:16.016Z,99327.31
2024-04-15T17:24:42.609Z,99323.34
2024-04-15T17:27:09.406Z,99327.00
2024-04-15T17:29:36.703Z,99327.00
2024-04-15T17:32:03.533Z,99320.25
2024-04-15T17:34:30.252Z,99313.78
2024-04-15T17:36:57.322Z,99317.72
2024-04-15T17:39:25.780Z,99316.19
2024-04-15T17:41:52.465Z,99311.34
2024-04-15T17:44:19.096Z,99306.28
2024-04-15T17:46:45.678Z,99307.78
2024-04-15T17:49:12.535Z,99296.88
2024-04-15T17:51:39.199Z,99294.56
2024-04-15T17:54:06.090Z,99288.44
2024-04-15T17:56:32.723Z,99274.00
2024-04-15T17:58:59.322Z,99270.25
2024-04-15T18:01:25.878Z,99258.19
2024-04-15T18:03:52.920Z,99263.34
2024-04-15T18:06:19.482Z,99257.81
2024-04-15T18:08:46.703Z,99254.59
2024-04-15T18:11:13.407Z,99237.16
2024-04-15T18:13:40.059Z,99236.00
2024-04-15T18:16:09.020Z,99237.63
2024-04-15T18:18:35.783Z,99219.31
2024-04-15T18:21:02.391Z,99222.41
2024-04-15T18:23:28.903Z,99216.78
2024-04-15T18:25:55.618Z,99211.22
2024-04-15T18:28:22.220Z,99213.28
2024-04-15T18:30:49.270Z,99212.63
2024-04-15T18:33:15.815Z,99219.59
2024-04-15T18:35:42.520Z,99213.03
2024-04-15T18:38:09.714Z,99210.66
2024-04-15T18:40:36.317Z,99212.00
2024-04-15T18:43:03.105Z,99202.78
2024-04-15T18:45:29.772Z,99196.09
2024-04-15T18:47:56.836Z,99190.66
2024-04-15T18:50:24.163Z,99195.41
2024-04-15T18:52:50.908Z,99182.97
2024-04-15T18:55:17.659Z,99179.44
2024-04-15T18:57:44.398Z,99182.97
2024-04-15T19:00:11.600Z,99172.66
2024-04-15T19:02:38.200Z,99173.66
2024-04-15T19:05:05.010Z,99160.94
2024-04-15T19:07:32.466Z,99172.03
2024-04-15T19:09:59.075Z,99171.22
2024-04-15T19:12:26.004Z,99166.72
2024-04-15T19:15:05.712Z,99168.03
2024-04-15T19:17:40.564Z,99163.28
2024-04-15T19:20:07.531Z,99161.28
2024-04-15T19:22:34.079Z,99145.72
2024-04-15T19:25:02.786Z,99147.88
2024-04-15T19:27:29.466Z,99137.16
2024-04-15T19:29:55.973Z,99121.19
2024-04-15T19:32:22.658Z,99122.75
2024-04-15T19:34:49.467Z,99141.97
2024-04-15T19:37:16.071Z,99115.97
2024-04-15T19:39:43.046Z,99127.44
2024-04-15T19:42:09.552Z,99126.44
2024-04-15T19:44:36.065Z,99129.88
2024-04-15T19:47:02.620Z,99139.03
2024-04-15T19:49:29.291Z,99134.31
2024-04-15T19:51:56.141Z,99128.25
2024-04-15T19:54:22.799Z,99128.59
2024-04-15T19:56:49.978Z,99111.50
2024-04-15T19:59:17.490Z,99104.91
2024-04-15T20:01:44.208Z,99091.53
2024-04-15T20:04:10.850Z,99068.72
2024-04-15T20:06:37.488Z,99070.53
2024-04-15T20:09:04.193Z,99070.59
2024-04-15T20:11:30.846Z,99062.78
2024-04-15T20:13:57.546Z,99067.72
2024-04-15T20:16:24.190Z,99058.09
2024-04-15T20:19:04.422Z,99060.78
2024-04-15T20:21:31.903Z,99048.78
2024-04-15T20:23:59.092Z,99053.34
2024-04-15T20:26:25.806Z,99055.38
2024-04-15T20:28:52.498Z,99051.16
2024-04-15T20:31:19.083Z,99081.25
2024-04-15T20:33:47.115Z,99099.53
2024-04-15T20:36:13.674Z,99126.78
2024-04-15T20:38:42.313Z,99132.19
2024-04-15T20:41:08.941Z,99146.91
2024-04-15T20:43:35.536Z,99151.84
2024-04-15T20:46:02.652Z,99172.78
2024-04-15T20:48:29.926Z,99176.22
2024-04-15T20:50:56.523Z,99187.03
2024-04-15T20:53:23.043Z,99192.44
2024-04-15T20:55:49.730Z,99187.84
2024-04-15T20:58:16.342Z,99209.66
2024-04-15T21:00:44.457Z,99213.34
2024-04-15T21:03:11.444Z,99208.25
2024-04-15T21:05:37.951Z,99209.25
2024-04-15T21:08:05.991Z,99235.53
2024-04-15T21:10:32.680Z,99229.75
2024-04-15T21:12:59.369Z,99230.59
2024-04-15T21:15:25.973Z,99227.03
2024-04-15T21:17:52.637Z,99231.78
2024-04-15T21:20:19.196Z,99235.16
2024-04-15T21:22:45.787Z,99247.66
2024-04-15T21:25:12.688Z,99249.66
2024-04-15T21:27:39.448Z,99252.00
2024-04-15T21:30:06.633Z,99242.50
2024-04-15T21:32:33.211Z,99253.66
2024-04-15T21:34:59.747Z,99247.19
2024-04-15T21:37:26.361Z,99255.56
2024-04-15T21:39:52.960Z,99253.81
2024-04-15T21:42:19.427Z,99257.94
2024-04-15T21:44:45.983Z,99253.63
2024-04-15T21:47:12.538Z,99257.50
2024-04-15T21:49:39.181Z,99263.16
2024-04-15T21:52:05.799Z,99258.28
2024-04-15T21:54:32.329Z,99256.53
2024-04-15T21:57:01.778Z,99275.78
2024-04-15T21:59:29.444Z,99275.16
2024-04-15T22:01:56.314Z,99269.22
2024-04-15T22:04:22.949Z,99288.03
2024-04-15T22:06:49.508Z,99291.31
2024-04-15T22:09:16.047Z,99289.50
2024-04-15T22:11:42.998Z,99310.25
2024-04-15T22:14:09.517Z,99320.50
2024-04-15T22:16:36.183Z,99337.97
2024-04-15T22:19:02.782Z,99317.59
2024-04-15T22:21:29.360Z,99312.22
2024-04-15T22:23:55.872Z,99303.56
2024-04-15T22:26:22.393Z,99293.09
2024-04-15T22:28:48.892Z,99288.41
2024-04-15T22:31:15.475Z,99302.88
2024-04-15T22:33:42.153Z,99299.47
2024-04-15T22:36:08.691Z,99307.25
2024-04-15T22:38:35.363Z,99296.22
2024-04-15T22:41:01.872Z,99307.81
2024-04-15T22:43:28.480Z,99310.53
2024-04-15T22:45:55.067Z,99318.88
2024-04-15T22:48:21.582Z,99322.56
2024-04-15T22:50:48.053Z,99321.88
2024-04-15T22:53:14.616Z,99318.91
2024-04-15T22:55:41.150Z,99316.19
2024-04-15T22:58:07.743Z,99324.72
2024-04-15T23:00:34.415Z,99338.34
2024-04-15T23:03:01.087Z,99345.69
2024-04-15T23:05:28.137Z,99346.13
2024-04-15T23:07:54.661Z,99344.84
2024-04-15T23:10:21.225Z,99350.81
2024-04-15T23:12:47.765Z,99341.75
2024-04-15T23:15:14.515Z,99347.13
2024-04-15T23:17:41.124Z,99341.59
2024-04-15T23:20:08.132Z,99349.25
2024-04-15T23:22:34.677Z,99343.16
2024-04-15T23:25:01.342Z,99359.31
2024-04-15T23:27:27.895Z,99354.38
2024-04-15T23:29:54.437Z,99351.09
2024-04-15T23:32:20.938Z,99363.84
2024-04-15T23:34:47.481Z,99360.00
2024-04-15T23:37:14.007Z,99360.59
2024-04-15T23:39:40.587Z,99357.75
2024-04-15T23:42:07.488Z,99371.94
2024-04-15T23:44:34.094Z,99372.63
2024-04-15T23:47:00.646Z,99365.69
2024-04-15T23:49:27.251Z,99363.00
2024-04-15T23:51:53.770Z,99361.47
2024-04-15T23:54:20.732Z,99363.28
2024-04-15T23:56:47.263Z,99371.09
2024-04-15T23:59:13.792Z,99364.41
